Time;durP1;ratioP1;P1;durP2;ratioP2;P2;SDS_P1;SDS_P2;PMS_P1;PMS_P2;Temp;Humidity;BMP_temperature;BMP_pressure;BME280_temperature;BME280_humidity;BME280_pressure;Samples;Min_cycle;Max_cycle;Signal;HPM_P1;HPM_P2
2022/12/24 01:03:11;;;;;;;4.38;1.30;;;10.90;68.80;;;;;;5002293;28;20453;-92
2022/12/24 01:06:31;;;;;;;7.78;1.30;;;10.90;69.10;;;;;;5015667;28;20046;-85
2022/12/24 01:10:00;;;;;;;4.35;1.27;;;10.90;69.40;;;;;;5013961;28;20026;-86
2022/12/24 01:13:28;;;;;;;6.07;1.45;;;10.90;69.80;;;;;;4994026;28;20038;-86
2022/12/24 01:17:13;;;;;;;6.53;1.30;;;11.00;69.00;;;;;;5015848;28;20594;-86
2022/12/24 01:20:45;;;;;;;5.90;1.45;;;11.00;69.10;;;;;;5012783;28;20320;-87
2022/12/24 01:24:15;;;;;;;7.93;1.20;;;11.00;69.70;;;;;;5016207;28;20449;-87
2022/12/24 01:27:30;;;;;;;6.25;1.67;;;11.10;69.70;;;;;;5016066;28;20101;-85
2022/12/24 01:30:58;;;;;;;3.28;1.13;;;11.10;69.80;;;;;;5014092;28;20040;-85
2022/12/24 01:33:53;;;;;;;3.83;1.40;;;11.10;70.20;;;;;;5006670;28;20025;-84
2022/12/24 01:36:55;;;;;;;4.57;1.08;;;11.10;70.60;;;;;;5014090;28;20029;-85
2022/12/24 01:43:42;;;;;;;11.25;1.55;;;11.00;70.80;;;;;;4981329;28;20077;-88
2022/12/24 01:47:12;;;;;;;5.32;1.45;;;11.00;70.20;;;;;;4975301;28;20043;-87
2022/12/24 01:50:28;;;;;;;5.57;0.88;;;11.00;68.70;;;;;;4935610;29;20422;-86
2022/12/24 01:53:49;;;;;;;7.95;1.85;;;11.00;68.30;;;;;;4931235;29;20034;-87
2022/12/24 01:57:34;;;;;;;5.78;1.50;;;11.10;68.50;;;;;;4931074;29;20040;-89
2022/12/24 02:01:06;;;;;;;4.03;1.13;;;11.00;68.60;;;;;;4862385;29;20119;-90
2022/12/24 02:18:26;;;;;;;9.57;1.60;;;10.80;69.30;;;;;;4900666;29;20100;-89
2022/12/24 02:21:39;;;;;;;;;;;10.80;69.20;;;;;;4912314;29;20032;-89
2022/12/24 02:28:29;;;;;;;12.88;1.85;;;10.70;69.40;;;;;;4879876;29;20132;-87
2022/12/24 02:32:18;;;;;;;8.52;1.85;;;10.70;69.00;;;;;;4873125;29;20039;-89
2022/12/24 02:35:58;;;;;;;7.82;1.25;;;10.70;68.60;;;;;;4807527;29;20035;-88
2022/12/24 03:28:14;;;;;;;8.77;1.80;;;10.60;68.20;;;;;;4834014;29;20098;-85
2022/12/24 03:31:46;;;;;;;11.90;2.03;;;10.70;68.00;;;;;;4879392;29;20036;-85
2022/12/24 03:35:21;;;;;;;10.63;1.85;;;10.70;67.90;;;;;;4958154;28;20487;-86
2022/12/24 03:38:34;;;;;;;12.65;2.58;;;10.70;67.80;;;;;;4995403;28;20037;-86
2022/12/24 03:41:45;;;;;;;9.93;1.52;;;10.70;67.30;;;;;;4994401;28;20038;-86
2022/12/24 03:44:59;;;;;;;10.73;1.60;;;10.70;67.60;;;;;;4993803;28;20061;-85
2022/12/24 03:48:06;;;;;;;4.97;1.40;;;10.70;67.90;;;;;;4993848;28;20057;-85
2022/12/24 03:51:09;;;;;;;9.60;1.42;;;10.60;67.30;;;;;;4989830;28;20399;-84
2022/12/24 03:54:26;;;;;;;10.40;1.45;;;10.60;67.90;;;;;;4992503;28;20030;-85
2022/12/24 03:58:06;;;;;;;7.32;1.60;;;10.60;68.30;;;;;;4981621;28;20439;-85
2022/12/24 04:01:38;;;;;;;7.55;1.48;;;10.60;69.10;;;;;;4993657;28;20447;-85
2022/12/24 04:04:46;;;;;;;6.13;1.80;;;10.60;68.50;;;;;;4993255;28;20418;-85
2022/12/24 04:07:45;;;;;;;12.02;1.45;;;10.60;68.40;;;;;;4994144;28;20034;-84
2022/12/24 04:11:12;;;;;;;6.22;1.38;;;10.60;68.80;;;;;;4993901;28;20065;-85
2022/12/24 04:14:50;;;;;;;8.73;1.67;;;10.60;68.60;;;;;;4979059;28;20023;-85
2022/12/24 04:18:08;;;;;;;5.43;1.08;;;10.60;69.30;;;;;;4993572;28;20022;-85
2022/12/24 04:21:35;;;;;;;6.32;1.33;;;10.60;69.70;;;;;;4993387;28;20418;-86
2022/12/24 04:25:16;;;;;;;3.97;1.00;;;10.60;70.10;;;;;;4993026;28;20023;-86
2022/12/24 04:28:56;;;;;;;5.70;1.35;;;10.50;70.00;;;;;;4964693;28;20494;-86
2022/12/24 04:32:09;;;;;;;11.48;2.03;;;10.60;69.40;;;;;;4975995;28;20384;-86
2022/12/24 04:35:27;;;;;;;7.10;1.30;;;10.50;69.20;;;;;;4943945;28;20085;-84
2022/12/24 04:38:18;;;;;;;;;;;10.50;69.40;;;;;;4971835;28;20046;-84
2022/12/24 04:41:27;;;;;;;8.18;1.60;;;10.50;69.70;;;;;;4975339;28;19996;-84
2022/12/24 04:44:34;;;;;;;6.07;1.60;;;10.50;69.50;;;;;;4959602;28;20057;-84
2022/12/24 04:47:01;;;;;;;9.60;1.70;;;10.60;69.50;;;;;;4975402;28;20110;-83
2022/12/24 04:49:30;;;;;;;6.38;1.58;;;10.60;69.20;;;;;;4958685;28;20109;-83
2022/12/24 04:51:58;;;;;;;4.72;1.65;;;10.60;69.10;;;;;;4942630;28;20063;-83
2022/12/24 04:54:32;;;;;;;8.00;1.15;;;10.50;69.30;;;;;;4958404;28;20085;-83
2022/12/24 04:57:00;;;;;;;9.07;1.67;;;10.60;69.10;;;;;;4974521;28;20391;-83
2022/12/24 04:59:30;;;;;;;5.90;1.20;;;10.60;68.70;;;;;;4958512;28;20153;-84
2022/12/24 05:03:04;;;;;;;7.15;1.55;;;10.50;68.70;;;;;;4971598;28;20035;-86
2022/12/24 05:06:36;;;;;;;7.65;1.60;;;10.50;68.80;;;;;;4974583;28;20420;-87
2022/12/24 05:09:49;;;;;;;6.18;1.77;;;10.50;69.00;;;;;;4964383;28;20031;-86
2022/12/24 05:16:44;;;;;;;6.80;1.58;;;10.40;69.30;;;;;;4968562;28;20033;-86
2022/12/24 05:20:13;;;;;;;12.00;1.55;;;10.40;69.00;;;;;;4862015;29;20025;-88
2022/12/24 05:27:12;;;;;;;10.93;1.73;;;10.40;69.10;;;;;;4918603;29;20042;-88
2022/12/24 05:34:13;;;;;;;8.65;1.88;;;10.50;67.60;;;;;;4901279;29;20170;-88
2022/12/24 05:37:44;;;;;;;11.10;2.17;;;10.40;67.70;;;;;;4881718;29;20045;-88
2022/12/24 05:44:47;;;;;;;10.43;3.45;;;10.30;68.00;;;;;;4843656;29;20032;-88
2022/12/24 05:48:18;;;;;;;5.05;1.58;;;10.30;67.80;;;;;;4806924;29;20541;-88
2022/12/24 05:58:52;;;;;;;11.05;2.28;;;10.30;68.10;;;;;;4770546;30;20039;-87
2022/12/24 06:16:00;;;;;;;12.02;1.70;;;10.20;67.00;;;;;;4717206;30;20593;-86
2022/12/24 06:19:34;;;;;;;14.25;2.35;;;10.20;67.00;;;;;;4761493;30;20120;-85
2022/12/24 06:26:29;;;;;;;12.20;2.13;;;10.20;66.00;;;;;;4897951;29;20132;-86
2022/12/24 06:29:53;;;;;;;8.07;1.95;;;10.20;66.40;;;;;;4876429;29;20538;-86
2022/12/24 06:55:25;;;;;;;11.90;2.55;;;10.00;65.10;;;;;;4916004;29;20043;-84
2022/12/24 06:58:17;;;;;;;12.05;2.30;;;10.00;64.70;;;;;;4897966;29;20040;-84
2022/12/24 07:01:09;;;;;;;17.38;2.30;;;10.00;65.00;;;;;;4965959;28;20423;-84
2022/12/24 07:04:18;;;;;;;17.05;5.00;;;10.00;65.50;;;;;;4971484;28;20034;-83
2022/12/24 07:07:47;;;;;;;12.05;2.47;;;10.00;64.90;;;;;;4975168;28;20094;-84
2022/12/24 07:11:18;;;;;;;13.35;2.15;;;10.10;64.90;;;;;;4969188;28;20050;-85
2022/12/24 07:14:44;;;;;;;16.25;2.83;;;10.10;65.00;;;;;;4972461;28;20027;-84
2022/12/24 07:18:11;;;;;;;10.30;2.25;;;10.10;65.10;;;;;;4972108;28;20553;-85
2022/12/24 07:21:24;;;;;;;10.82;2.42;;;10.20;64.40;;;;;;4933915;29;20126;-84
2022/12/24 07:31:39;;;;;;;12.32;2.17;;;10.20;64.50;;;;;;4880759;29;20044;-87
2022/12/24 07:35:14;;;;;;;16.83;2.38;;;10.20;64.70;;;;;;4897811;29;20047;-88
2022/12/24 07:38:41;;;;;;;14.30;2.78;;;10.20;64.70;;;;;;4857846;29;20100;-87
2022/12/24 07:41:58;;;;;;;;;;;10.20;65.20;;;;;;4843662;29;20038;-85
2022/12/24 07:44:58;;;;;;;;;;;10.20;65.10;;;;;;4857682;29;19936;-87
2022/12/24 07:48:38;;;;;;;11.98;2.05;;;10.20;65.60;;;;;;4880458;29;19920;-81
2022/12/24 07:55:33;;;;;;;15.30;3.15;;;10.10;65.80;;;;;;4806952;30;20041;-84
2022/12/24 08:01:46;;;;;;;13.52;2.85;;;10.20;66.00;;;;;;4772339;29;20055;-83
2022/12/24 08:05:22;;;;;;;12.05;2.60;;;10.20;65.80;;;;;;4737213;30;20044;-86
2022/12/24 08:08:10;;;;;;;8.40;2.08;;;10.20;66.30;;;;;;4744984;30;20124;-81
2022/12/24 08:11:29;;;;;;;11.18;2.50;;;10.20;66.60;;;;;;4739663;29;20044;-81
2022/12/24 08:14:21;;;;;;;10.70;2.60;;;10.30;65.90;;;;;;4806793;29;20047;-82
2022/12/24 08:17:11;;;;;;;16.83;4.07;;;10.30;66.50;;;;;;4807017;29;20039;-81
2022/12/24 08:23:55;;;;;;;15.95;4.25;;;10.40;67.40;;;;;;4846244;29;20080;-81
2022/12/24 08:27:26;;;;;;;13.30;2.60;;;10.50;65.40;;;;;;4860887;29;20070;-82
2022/12/24 08:30:49;;;;;;;11.75;2.88;;;10.50;64.80;;;;;;4860455;29;20045;-83
2022/12/24 08:40:09;;;;;;;14.57;3.13;;;10.60;65.30;;;;;;4918816;29;20113;-83
2022/12/24 08:42:34;;;;;;;10.88;2.65;;;10.70;64.50;;;;;;4973193;28;20030;-81
2022/12/24 08:45:27;;;;;;;11.63;2.88;;;10.80;63.80;;;;;;5015657;28;20394;-81
2022/12/24 08:48:00;;;;;;;14.88;2.42;;;10.90;62.00;;;;;;4997529;28;20037;-82
2022/12/24 08:51:23;;;;;;;17.17;2.85;;;10.80;62.00;;;;;;5014077;28;20088;-87
2022/12/24 08:54:45;;;;;;;15.23;3.22;;;10.90;62.70;;;;;;5012944;28;20111;-84
2022/12/24 08:57:15;;;;;;;14.95;2.58;;;11.20;59.40;;;;;;5014049;28;20022;-82
2022/12/24 09:00:23;;;;;;;9.55;2.35;;;11.20;59.50;;;;;;4997569;28;20473;-83
2022/12/24 09:04:09;;;;;;;11.05;2.20;;;11.20;59.30;;;;;;4988154;28;20159;-85
2022/12/24 09:06:59;;;;;;;9.88;1.92;;;11.20;59.80;;;;;;4945293;29;20515;-81
2022/12/24 09:09:27;;;;;;;11.30;1.95;;;11.00;59.80;;;;;;4991433;28;20641;-85
2022/12/24 09:11:53;;;;;;;9.00;2.22;;;11.00;59.80;;;;;;4978683;28;20414;-85
2022/12/24 09:14:19;;;;;;;12.93;2.22;;;11.00;59.80;;;;;;4993131;28;20022;-84
2022/12/24 09:16:48;;;;;;;11.00;2.65;;;10.90;59.90;;;;;;4978197;28;20101;-84
2022/12/24 09:19:15;;;;;;;14.48;2.67;;;10.90;59.80;;;;;;4971551;28;20035;-85
2022/12/24 09:21:43;;;;;;;20.65;4.32;;;10.90;59.60;;;;;;4997387;28;20102;-83
2022/12/24 09:24:09;;;;;;;15.32;4.07;;;10.90;59.70;;;;;;4995352;28;20030;-85
2022/12/24 09:26:36;;;;;;;12.32;2.90;;;11.00;59.80;;;;;;4999168;28;20035;-85
2022/12/24 09:29:02;;;;;;;16.13;2.95;;;11.10;59.80;;;;;;4993809;28;20119;-84
2022/12/24 09:31:32;;;;;;;12.32;3.35;;;11.00;59.30;;;;;;4995597;28;20030;-85
2022/12/24 09:33:58;;;;;;;16.95;3.00;;;11.10;59.80;;;;;;5005834;28;20034;-84
2022/12/24 09:36:24;;;;;;;10.65;2.15;;;11.10;59.00;;;;;;5014654;28;20470;-84
2022/12/24 09:38:51;;;;;;;12.43;2.70;;;11.10;60.30;;;;;;5011438;28;20029;-84
2022/12/24 09:41:37;;;;;;;9.93;2.28;;;11.10;59.50;;;;;;5013840;28;20080;-82
2022/12/24 09:44:24;;;;;;;14.57;3.17;;;11.10;59.70;;;;;;5013867;28;20022;-78
2022/12/24 09:46:52;;;;;;;9.70;2.40;;;11.30;58.80;;;;;;5014599;28;20045;-78
2022/12/24 09:49:22;;;;;;;14.07;2.85;;;11.30;58.20;;;;;;5013540;28;20042;-79
2022/12/24 09:51:59;;;;;;;13.10;3.13;;;11.30;58.40;;;;;;5013941;28;20025;-78
2022/12/24 09:54:31;;;;;;;12.45;2.38;;;11.30;58.50;;;;;;5013587;28;20080;-78
2022/12/24 09:57:04;;;;;;;13.00;3.60;;;11.30;58.80;;;;;;5014551;28;20029;-80
2022/12/24 09:59:42;;;;;;;11.05;2.25;;;11.30;59.90;;;;;;5013209;28;20088;-78
2022/12/24 10:02:14;;;;;;;16.00;3.35;;;11.30;59.10;;;;;;5012981;28;20022;-78
2022/12/24 10:04:41;;;;;;;12.98;2.33;;;11.30;59.30;;;;;;5012880;28;20049;-79
2022/12/24 10:07:19;;;;;;;11.23;2.90;;;11.40;58.70;;;;;;5013028;28;20482;-77
2022/12/24 10:10:12;;;;;;;12.98;2.70;;;11.40;58.60;;;;;;5012660;28;20030;-79
2022/12/24 10:13:22;;;;;;;11.07;3.25;;;11.40;59.00;;;;;;5012326;28;20395;-78
2022/12/24 10:16:02;;;;;;;12.23;2.60;;;11.40;59.20;;;;;;5012721;28;20026;-79
2022/12/24 10:19:09;;;;;;;10.15;2.47;;;11.30;59.60;;;;;;5012715;28;20515;-77
2022/12/24 10:22:16;;;;;;;12.85;2.90;;;11.20;59.20;;;;;;5028513;28;20029;-79
2022/12/24 10:24:53;;;;;;;16.48;3.13;;;11.20;60.10;;;;;;5012254;28;20414;-80
2022/12/24 10:27:23;;;;;;;18.70;2.72;;;11.20;60.60;;;;;;5012033;28;20029;-79
2022/12/24 10:29:56;;;;;;;12.18;2.22;;;11.10;61.30;;;;;;4996249;28;20037;-79
2022/12/24 10:32:31;;;;;;;13.50;2.28;;;11.10;61.60;;;;;;5011973;28;20368;-79
2022/12/24 10:35:03;;;;;;;14.07;3.10;;;11.10;62.60;;;;;;4996418;28;20022;-79
2022/12/24 10:37:31;;;;;;;11.88;2.40;;;11.00;61.80;;;;;;5012037;28;20049;-80
2022/12/24 10:39:58;;;;;;;18.77;3.00;;;11.10;62.00;;;;;;5012206;28;20458;-79
2022/12/24 10:42:38;;;;;;;7.13;1.83;;;11.10;62.30;;;;;;5012104;28;20060;-79
2022/12/24 10:45:07;;;;;;;11.70;2.95;;;11.10;62.30;;;;;;5011886;28;20080;-77
2022/12/24 10:47:36;;;;;;;14.85;2.92;;;11.20;62.30;;;;;;5011976;28;20562;-79
2022/12/24 10:50:29;;;;;;;9.02;2.85;;;11.30;62.40;;;;;;5012230;28;20029;-78
2022/12/24 10:53:05;;;;;;;12.75;1.88;;;11.30;61.60;;;;;;5011802;28;20113;-78
2022/12/24 10:55:31;;;;;;;11.90;2.72;;;11.40;61.30;;;;;;5011895;28;20026;-78
2022/12/24 10:58:02;;;;;;;15.55;3.03;;;11.50;61.20;;;;;;5012209;28;20028;-78
2022/12/24 11:00:30;;;;;;;14.73;2.45;;;11.50;61.10;;;;;;4995359;28;20140;-80
2022/12/24 11:03:28;;;;;;;19.85;3.08;;;11.60;60.10;;;;;;5011630;28;20113;-79
2022/12/24 11:06:13;;;;;;;14.48;3.63;;;11.50;60.20;;;;;;5012106;28;20049;-79
2022/12/24 11:08:43;;;;;;;11.27;2.72;;;11.70;59.40;;;;;;5011827;28;20083;-81
2022/12/24 11:11:19;;;;;;;18.52;2.80;;;11.80;59.50;;;;;;5011809;28;20033;-78
2022/12/24 11:13:48;;;;;;;12.90;2.80;;;11.90;59.00;;;;;;5012056;28;20018;-78
2022/12/24 11:16:37;;;;;;;10.40;2.28;;;12.10;58.20;;;;;;5011904;28;20450;-78
2022/12/24 11:19:14;;;;;;;11.23;2.63;;;12.10;57.10;;;;;;5011589;28;20121;-77
2022/12/24 11:21:40;;;;;;;13.10;2.90;;;12.20;56.80;;;;;;5011900;28;20167;-77
2022/12/24 11:24:23;;;;;;;17.23;2.70;;;12.30;57.00;;;;;;4995453;28;20030;-77
2022/12/24 11:26:49;;;;;;;14.95;2.58;;;12.50;56.00;;;;;;5011460;28;20317;-79
2022/12/24 11:29:21;;;;;;;14.02;2.30;;;12.80;55.40;;;;;;5011968;28;20026;-79
2022/12/24 11:31:51;;;;;;;12.88;2.72;;;13.60;53.40;;;;;;5011779;28;20021;-79
2022/12/24 11:34:31;;;;;;;7.75;2.13;;;14.50;50.50;;;;;;5011781;28;20455;-78
2022/12/24 11:37:16;;;;;;;15.07;2.85;;;15.10;48.10;;;;;;5011660;28;20076;-79
2022/12/24 11:39:54;;;;;;;10.52;2.47;;;15.70;47.00;;;;;;5015765;28;20062;-77
2022/12/24 11:42:30;;;;;;;9.50;2.60;;;16.10;46.00;;;;;;5015552;28;20026;-81
2022/12/24 11:44:58;;;;;;;5.70;1.75;;;16.00;45.00;;;;;;5020088;28;20052;-80
2022/12/24 11:47:53;;;;;;;10.43;2.13;;;16.20;44.70;;;;;;5015370;28;20034;-79
2022/12/24 11:50:41;;;;;;;10.13;2.47;;;17.00;42.80;;;;;;5015038;28;20042;-80
2022/12/24 11:53:44;;;;;;;9.10;2.58;;;17.30;41.80;;;;;;5015217;28;20030;-80
2022/12/24 11:56:39;;;;;;;10.15;2.10;;;16.80;42.80;;;;;;4999138;28;20578;-80
2022/12/24 11:59:28;;;;;;;10.73;2.35;;;16.70;44.00;;;;;;5016397;28;20105;-81
2022/12/24 12:02:22;;;;;;;9.55;2.38;;;15.80;46.40;;;;;;5015329;28;20128;-79
2022/12/24 12:05:06;;;;;;;9.15;2.28;;;15.20;48.30;;;;;;5015579;28;20105;-81
2022/12/24 12:07:41;;;;;;;6.90;1.95;;;15.50;47.70;;;;;;5017124;28;20051;-80
2022/12/24 12:10:31;;;;;;;11.48;2.75;;;15.90;47.70;;;;;;5014970;28;20039;-79
2022/12/24 12:13:31;;;;;;;9.20;2.42;;;17.80;43.20;;;;;;5013711;28;20030;-79
2022/12/24 12:17:02;;;;;;;9.35;2.63;;;19.90;38.30;;;;;;5016635;28;20053;-78
2022/12/24 12:19:45;;;;;;;9.88;2.40;;;20.20;36.20;;;;;;5015503;28;20022;-80
2022/12/24 12:22:31;;;;;;;8.70;2.50;;;18.40;38.60;;;;;;4984663;28;20053;-82
2022/12/24 12:25:20;;;;;;;9.30;1.83;;;17.60;42.40;;;;;;5015161;28;20037;-80
2022/12/24 12:27:50;;;;;;;6.78;2.05;;;18.20;41.50;;;;;;5001569;28;20037;-80
2022/12/24 12:30:19;;;;;;;7.22;2.45;;;18.40;40.00;;;;;;4998671;28;20033;-81
2022/12/24 12:33:06;;;;;;;7.82;1.70;;;17.90;40.90;;;;;;5015053;28;20030;-80
2022/12/24 12:35:37;;;;;;;5.78;1.98;;;18.30;40.80;;;;;;5014740;28;20029;-77
2022/12/24 12:38:35;;;;;;;6.68;2.05;;;19.30;39.00;;;;;;5015853;28;20030;-79
2022/12/24 12:41:52;;;;;;;9.73;2.30;;;18.90;38.60;;;;;;5014689;28;20038;-79
2022/12/24 12:44:28;;;;;;;10.48;2.13;;;18.50;40.90;;;;;;5014943;28;20026;-79
2022/12/24 12:47:41;;;;;;;7.05;2.08;;;20.30;37.90;;;;;;5008956;28;20038;-80
2022/12/24 12:50:33;;;;;;;5.45;1.60;;;21.40;34.40;;;;;;5014939;28;20076;-80
2022/12/24 12:53:18;;;;;;;9.77;2.15;;;21.60;32.80;;;;;;5014769;28;20057;-79
2022/12/24 12:56:05;;;;;;;5.53;1.75;;;21.20;33.50;;;;;;5014688;28;20025;-80
2022/12/24 12:58:52;;;;;;;6.35;2.10;;;21.40;33.50;;;;;;5014424;28;20030;-80
2022/12/24 13:01:32;;;;;;;6.65;1.98;;;20.90;33.90;;;;;;5014739;28;20058;-79
2022/12/24 13:04:21;;;;;;;9.93;2.20;;;21.00;34.10;;;;;;5015135;28;20022;-79
2022/12/24 13:07:16;;;;;;;6.20;2.35;;;20.90;34.40;;;;;;5013283;28;20529;-79
2022/12/24 13:09:42;;;;;;;7.47;2.42;;;21.10;34.10;;;;;;5013588;28;20029;-80
2022/12/24 13:12:30;;;;;;;9.20;2.58;;;21.40;33.70;;;;;;5013521;28;20037;-81
2022/12/24 13:15:35;;;;;;;5.88;1.67;;;20.70;34.10;;;;;;5013626;28;20022;-80
2022/12/24 13:18:24;;;;;;;6.25;2.22;;;21.00;34.10;;;;;;5014776;28;20018;-80
2022/12/24 13:20:51;;;;;;;7.55;2.00;;;19.90;35.90;;;;;;5014706;28;20129;-80
2022/12/24 13:23:22;;;;;;;8.20;2.13;;;18.40;38.80;;;;;;5013953;28;20026;-78
2022/12/24 13:26:08;;;;;;;10.38;2.40;;;17.30;41.70;;;;;;4998650;28;20041;-84
2022/12/24 13:28:52;;;;;;;11.80;2.05;;;16.60;43.60;;;;;;5013970;28;20022;-83
2022/12/24 13:31:21;;;;;;;12.90;2.60;;;16.40;45.20;;;;;;5013903;28;20120;-86
2022/12/24 13:33:54;;;;;;;8.43;2.47;;;16.60;44.70;;;;;;5015541;28;20025;-83
2022/12/24 13:36:23;;;;;;;8.85;2.42;;;16.60;45.10;;;;;;4997848;28;20044;-85
2022/12/24 13:38:55;;;;;;;8.40;2.00;;;16.30;45.00;;;;;;5014064;28;20495;-81
2022/12/24 13:41:33;;;;;;;10.40;2.17;;;16.10;45.50;;;;;;5013442;28;20061;-82
2022/12/24 13:44:31;;;;;;;12.65;2.53;;;15.60;46.90;;;;;;5013826;28;20030;-82
2022/12/24 13:46:58;;;;;;;6.85;1.75;;;14.90;49.10;;;;;;4976908;28;20046;-83
2022/12/24 13:49:29;;;;;;;9.48;1.70;;;14.30;50.80;;;;;;4977084;28;20053;-80
2022/12/24 13:52:32;;;;;;;11.20;2.58;;;13.90;52.80;;;;;;4977069;28;20129;-85
2022/12/24 13:55:06;;;;;;;11.88;2.15;;;15.00;49.70;;;;;;4940006;28;20566;-85
2022/12/24 13:57:52;;;;;;;4.57;1.63;;;16.20;45.90;;;;;;4975616;28;20125;-84
2022/12/24 14:00:29;;;;;;;8.75;2.20;;;17.10;44.50;;;;;;4972249;28;20557;-84
2022/12/24 14:03:04;;;;;;;4.75;1.48;;;17.30;43.60;;;;;;4975231;28;20035;-85
2022/12/24 14:05:43;;;;;;;11.73;2.30;;;16.80;44.70;;;;;;4974927;28;20617;-82
2022/12/24 14:08:25;;;;;;;7.90;1.50;;;16.70;44.90;;;;;;4974270;28;20049;-82
2022/12/24 14:11:02;;;;;;;5.32;1.58;;;16.90;44.70;;;;;;4969868;28;20077;-82
2022/12/24 14:13:47;;;;;;;8.98;1.85;;;17.20;44.20;;;;;;4973898;28;20034;-83
2022/12/24 14:16:36;;;;;;;7.33;2.03;;;17.70;42.50;;;;;;4990642;28;20034;-82
2022/12/24 14:19:15;;;;;;;9.85;2.47;;;17.60;41.80;;;;;;5009173;28;20265;-82
2022/12/24 14:21:50;;;;;;;4.82;1.70;;;17.00;43.30;;;;;;5009838;28;20051;-81
2022/12/24 14:24:33;;;;;;;5.90;1.40;;;16.00;45.10;;;;;;5011889;28;20057;-82
2022/12/24 14:27:23;;;;;;;8.75;1.40;;;15.20;47.70;;;;;;5009681;28;20073;-83
2022/12/24 14:30:07;;;;;;;4.85;1.23;;;14.50;50.00;;;;;;5011160;28;20028;-82
2022/12/24 14:32:39;;;;;;;7.07;2.00;;;13.80;52.00;;;;;;5011901;28;20377;-82
2022/12/24 14:35:32;;;;;;;6.20;1.88;;;13.40;53.80;;;;;;4995923;28;20120;-81
2022/12/24 14:38:05;;;;;;;8.23;1.85;;;12.90;55.90;;;;;;5008991;28;20033;-82
2022/12/24 14:40:36;;;;;;;7.07;1.67;;;12.60;57.30;;;;;;5014061;28;20045;-82
2022/12/24 14:43:32;;;;;;;13.00;2.25;;;12.50;58.70;;;;;;5012670;28;20092;-83
2022/12/24 14:46:19;;;;;;;5.70;1.70;;;12.30;59.60;;;;;;5013077;28;20394;-78
2022/12/24 14:48:55;;;;;;;7.30;2.00;;;12.10;59.70;;;;;;5012916;28;20022;-81
2022/12/24 14:51:29;;;;;;;10.52;2.00;;;11.90;60.20;;;;;;5013223;28;20120;-79
2022/12/24 14:54:19;;;;;;;12.18;1.88;;;11.70;60.70;;;;;;5013267;28;20029;-82
2022/12/24 14:57:10;;;;;;;8.85;2.05;;;11.60;60.80;;;;;;5014179;28;20037;-85
2022/12/24 14:59:54;;;;;;;8.50;1.75;;;11.50;61.00;;;;;;5012668;28;20065;-77
2022/12/24 15:02:41;;;;;;;6.57;1.50;;;11.50;61.40;;;;;;5013029;28;20152;-78
2022/12/24 15:05:27;;;;;;;13.50;2.35;;;11.40;61.60;;;;;;5012667;28;20037;-78
2022/12/24 15:08:03;;;;;;;9.15;2.85;;;11.30;62.40;;;;;;5012678;28;20386;-81
2022/12/24 15:10:40;;;;;;;5.78;2.20;;;11.30;63.40;;;;;;5012891;28;20056;-80
2022/12/24 15:13:21;;;;;;;9.43;2.58;;;11.20;63.80;;;;;;5013023;28;20080;-78
2022/12/24 15:15:53;;;;;;;7.30;1.92;;;11.10;64.80;;;;;;5012128;28;20483;-78
2022/12/24 15:18:22;;;;;;;6.95;1.70;;;11.20;65.30;;;;;;4996124;28;20077;-77
2022/12/24 15:20:52;;;;;;;10.15;2.30;;;11.10;66.10;;;;;;5012227;28;20113;-82
2022/12/24 15:23:27;;;;;;;8.30;2.20;;;11.00;66.60;;;;;;5013464;28;20022;-82
2022/12/24 15:26:19;;;;;;;7.90;1.65;;;11.10;66.80;;;;;;5012251;28;20049;-81
2022/12/24 15:28:45;;;;;;;8.13;2.30;;;11.00;67.20;;;;;;5007819;28;20466;-78
2022/12/24 15:31:16;;;;;;;6.55;2.42;;;11.00;67.30;;;;;;5012177;28;20053;-76
2022/12/24 15:33:47;;;;;;;7.15;2.92;;;11.00;68.50;;;;;;5011967;28;20028;-73
2022/12/24 15:36:15;;;;;;;7.65;2.90;;;10.90;68.20;;;;;;5013255;28;20026;-73
2022/12/24 15:38:43;;;;;;;9.93;3.33;;;10.90;68.40;;;;;;5012741;28;20181;-74
2022/12/24 15:41:22;;;;;;;10.18;3.30;;;10.90;68.70;;;;;;5011738;28;20049;-74
2022/12/24 15:43:49;;;;;;;10.30;3.13;;;10.90;69.00;;;;;;5012090;28;20029;-74
2022/12/24 15:46:23;;;;;;;8.18;2.92;;;10.90;70.40;;;;;;5011881;28;20034;-73
2022/12/24 15:48:51;;;;;;;9.68;2.75;;;10.90;70.40;;;;;;5011647;28;20030;-73
2022/12/24 15:51:25;;;;;;;9.90;3.28;;;10.90;70.50;;;;;;5011288;28;20088;-74
2022/12/24 15:53:57;;;;;;;10.45;3.35;;;10.90;70.50;;;;;;5011626;28;20470;-73
2022/12/24 15:56:43;;;;;;;10.80;3.45;;;11.00;70.70;;;;;;5012815;28;20386;-73
2022/12/24 15:59:16;;;;;;;10.18;2.63;;;11.00;70.90;;;;;;5012680;28;20018;-74
2022/12/24 16:01:43;;;;;;;8.65;2.88;;;11.00;70.70;;;;;;5011914;28;20121;-73
2022/12/24 16:04:15;;;;;;;9.07;3.28;;;11.00;70.60;;;;;;5011864;28;20026;-73
2022/12/24 16:06:55;;;;;;;7.00;2.38;;;11.10;70.50;;;;;;5012782;28;20554;-73
2022/12/24 16:09:39;;;;;;;6.15;2.50;;;11.10;70.30;;;;;;5012806;28;20030;-73
2022/12/24 16:12:13;;;;;;;7.90;2.80;;;11.10;70.30;;;;;;5012943;28;20069;-73
2022/12/24 16:14:40;;;;;;;5.53;2.47;;;11.10;70.30;;;;;;5012844;28;20037;-72
2022/12/24 16:17:17;;;;;;;7.82;3.15;;;11.10;70.10;;;;;;5012864;28;20060;-72
2022/12/24 16:19:47;;;;;;;7.72;2.65;;;11.00;70.00;;;;;;5012542;28;20026;-73
2022/12/24 16:22:30;;;;;;;4.25;1.77;;;10.90;70.40;;;;;;5012450;28;20113;-72
2022/12/24 16:24:56;;;;;;;5.97;1.95;;;10.80;70.10;;;;;;5015353;28;20049;-72
2022/12/24 16:27:21;;;;;;;4.20;1.50;;;10.70;70.80;;;;;;5016481;28;20029;-73
2022/12/24 16:29:47;;;;;;;6.70;1.85;;;10.50;71.40;;;;;;5015140;28;20032;-72
2022/12/24 16:32:32;;;;;;;4.45;1.92;;;10.40;71.90;;;;;;5016459;28;20057;-71
2022/12/24 16:34:59;;;;;;;4.35;1.77;;;10.30;72.70;;;;;;5015854;28;20100;-75
2022/12/24 16:37:25;;;;;;;5.32;1.80;;;10.20;73.20;;;;;;5015002;28;20022;-75
2022/12/24 16:39:51;;;;;;;4.70;1.73;;;10.10;73.60;;;;;;5014279;28;20095;-73
2022/12/24 16:45:02;;;;;;;2.60;1.42;;;10.00;74.10;;;;;;5015850;28;20040;-75
2022/12/24 16:47:30;;;;;;;6.07;1.58;;;10.00;74.40;;;;;;5016299;28;20026;-73
2022/12/24 16:49:57;;;;;;;4.75;1.85;;;9.90;74.80;;;;;;5016288;28;20076;-72
2022/12/24 16:52:27;;;;;;;4.10;1.30;;;9.90;75.10;;;;;;5018420;28;20053;-74
2022/12/24 16:54:53;;;;;;;5.47;1.48;;;9.90;75.30;;;;;;5015866;28;20112;-73
2022/12/24 16:57:19;;;;;;;5.10;1.63;;;10.00;75.10;;;;;;5015833;28;20072;-78
2022/12/24 16:59:45;;;;;;;4.75;2.20;;;9.90;75.00;;;;;;5015815;28;20057;-76
2022/12/24 17:02:16;;;;;;;3.67;1.50;;;10.00;74.90;;;;;;5015319;28;20085;-73
2022/12/24 17:04:42;;;;;;;2.40;1.00;;;10.00;74.70;;;;;;5015537;28;20025;-74
2022/12/24 17:07:10;;;;;;;2.20;1.27;;;10.00;74.60;;;;;;5015634;28;20176;-77
2022/12/24 17:09:36;;;;;;;3.28;1.30;;;10.00;74.60;;;;;;5015870;28;20378;-73
2022/12/24 17:12:02;;;;;;;4.25;1.50;;;9.90;74.60;;;;;;5015611;28;20029;-73
2022/12/24 17:14:27;;;;;;;4.88;1.58;;;9.90;75.10;;;;;;5015725;28;20033;-77
2022/12/24 17:16:53;;;;;;;5.05;1.40;;;9.80;75.30;;;;;;5015728;28;20022;-75
2022/12/24 17:19:19;;;;;;;4.50;1.48;;;9.70;75.40;;;;;;5015602;28;20034;-75
2022/12/24 17:21:44;;;;;;;3.15;1.40;;;9.70;75.50;;;;;;5015479;28;20029;-75
2022/12/24 17:24:11;;;;;;;1.95;1.33;;;9.70;75.50;;;;;;5015742;28;20028;-77
2022/12/24 17:26:37;;;;;;;2.58;1.38;;;9.70;75.20;;;;;;5015632;28;20479;-78
2022/12/24 17:29:04;;;;;;;5.22;1.25;;;9.70;75.60;;;;;;5015585;28;20028;-83
2022/12/24 17:31:30;;;;;;;4.68;1.80;;;9.60;75.70;;;;;;5015424;28;20166;-82
2022/12/24 17:33:56;;;;;;;1.58;0.90;;;9.70;75.70;;;;;;5015661;28;20029;-88
2022/12/24 17:36:22;;;;;;;3.85;1.15;;;9.70;75.70;;;;;;5015650;28;20029;-89
2022/12/24 17:38:47;;;;;;;3.78;1.40;;;9.70;75.50;;;;;;5016054;28;20127;-74
2022/12/24 17:41:18;;;;;;;3.13;1.40;;;9.60;75.50;;;;;;5013936;28;20459;-75
2022/12/24 17:43:45;;;;;;;3.63;1.27;;;9.70;75.10;;;;;;5015334;28;20018;-74
2022/12/24 17:46:17;;;;;;;6.28;1.15;;;9.70;75.00;;;;;;5014908;28;20034;-74
2022/12/24 17:48:43;;;;;;;3.25;1.30;;;9.70;74.90;;;;;;5015260;28;20103;-74
2022/12/24 17:51:11;;;;;;;2.83;1.20;;;9.70;75.00;;;;;;5015157;28;20042;-74
2022/12/24 17:53:39;;;;;;;5.72;1.77;;;9.80;74.90;;;;;;5014939;28;20022;-79
2022/12/24 17:56:06;;;;;;;6.15;2.55;;;9.90;75.00;;;;;;5015400;28;20617;-85
2022/12/24 17:58:32;;;;;;;2.85;2.10;;;9.90;74.60;;;;;;5015090;28;20026;-73
2022/12/24 18:00:58;;;;;;;2.38;1.30;;;10.00;74.50;;;;;;5014828;28;20029;-86
2022/12/24 18:03:24;;;;;;;3.30;1.50;;;10.00;74.40;;;;;;5014807;28;20398;-73
2022/12/24 18:05:51;;;;;;;5.13;1.63;;;10.10;74.30;;;;;;5014816;28;20479;-75
2022/12/24 18:08:17;;;;;;;2.45;1.30;;;10.20;75.90;;;;;;5014554;28;20017;-75
2022/12/24 18:10:43;;;;;;;6.60;2.03;;;10.30;77.90;;;;;;5014485;28;20025;-77
2022/12/24 18:13:09;;;;;;;4.03;1.77;;;10.40;82.30;;;;;;5014255;28;20045;-75
2022/12/24 18:15:36;;;;;;;4.38;1.60;;;10.50;79.00;;;;;;5014566;28;20026;-78
2022/12/24 18:18:03;;;;;;;4.78;2.13;;;10.60;78.00;;;;;;5014475;28;20080;-77